createdAt,value
2023-01-06T00:00:52.842Z,10.77
2023-01-06T00:01:56.028Z,9.40
2023-01-06T00:02:58.017Z,10.73
2023-01-06T00:04:01.646Z,15.88
2023-01-06T00:05:04.060Z,8.63
2023-01-06T00:06:08.752Z,6.18
2023-01-06T00:07:10.672Z,4.40
2023-01-06T00:08:13.574Z,8.88
2023-01-06T00:09:16.467Z,13.20
2023-01-06T00:10:18.745Z,19.40
2023-01-06T00:11:22.043Z,14.98
2023-01-06T00:12:26.550Z,10.75
2023-01-06T00:13:29.875Z,5.82
2023-01-06T00:14:31.836Z,7.70
2023-01-06T00:15:41.298Z,6.30
2023-01-06T00:16:43.355Z,6.85
2023-01-06T00:17:46.544Z,18.05
2023-01-06T00:18:49.724Z,15.30
2023-01-06T00:19:51.787Z,8.98
2023-01-06T00:20:54.714Z,14.52
2023-01-06T00:21:56.790Z,8.80
2023-01-06T00:22:59.724Z,7.70
2023-01-06T00:24:01.730Z,13.25
2023-01-06T00:25:05.229Z,5.47
2023-01-06T00:26:09.004Z,5.18
2023-01-06T00:27:11.929Z,8.93
2023-01-06T00:28:15.248Z,8.30
2023-01-06T00:29:18.195Z,6.60
2023-01-06T00:30:20.159Z,12.57
2023-01-06T00:31:23.858Z,15.82
2023-01-06T00:32:25.899Z,13.25
2023-01-06T00:33:30.679Z,8.60
2023-01-06T00:34:33.495Z,12.52
2023-01-06T00:35:36.491Z,8.30
2023-01-06T00:36:39.439Z,12.27
2023-01-06T00:37:41.344Z,9.68
2023-01-06T00:38:44.274Z,9.23
2023-01-06T00:39:46.237Z,6.90
2023-01-06T00:40:49.180Z,5.43
2023-01-06T00:42:06.750Z,6.35
2023-01-06T00:43:10.060Z,16.80
2023-01-06T00:44:13.392Z,8.90
2023-01-06T00:45:16.591Z,7.40
2023-01-06T00:46:18.685Z,5.72
2023-01-06T00:47:21.678Z,7.75
2023-01-06T00:48:23.611Z,10.73
2023-01-06T00:49:26.654Z,12.27
2023-01-06T00:50:28.558Z,10.23
2023-01-06T00:51:31.809Z,12.35
2023-01-06T00:52:35.354Z,11.27
2023-01-06T00:53:37.268Z,9.80
2023-01-06T00:54:40.408Z,10.55
2023-01-06T00:55:42.348Z,14.80
2023-01-06T00:56:47.721Z,7.97
2023-01-06T00:57:52.601Z,8.25
2023-01-06T00:58:55.567Z,11.35
2023-01-06T01:00:00.271Z,7.43
2023-01-06T01:01:05.491Z,7.70
2023-01-06T01:02:08.615Z,7.22
2023-01-06T01:03:10.657Z,7.60
2023-01-06T01:04:13.973Z,5.82
2023-01-06T01:05:17.358Z,4.30
2023-01-06T01:06:19.335Z,4.97
2023-01-06T01:07:22.231Z,7.15
2023-01-06T01:08:24.229Z,6.78
2023-01-06T01:09:28.873Z,9.38
2023-01-06T01:10:31.781Z,8.18
2023-01-06T01:11:52.294Z,7.97
2023-01-06T01:12:55.210Z,7.38
2023-01-06T01:13:57.142Z,13.18
2023-01-06T01:15:01.477Z,9.30
2023-01-06T01:16:04.834Z,8.68
2023-01-06T01:17:08.654Z,7.10
2023-01-06T01:18:11.994Z,7.78
2023-01-06T01:19:14.818Z,6.85
2023-01-06T01:20:17.829Z,9.30
2023-01-06T01:21:19.780Z,7.18
2023-01-06T01:22:29.669Z,2.80
2023-01-06T01:23:31.639Z,7.68
2023-01-06T01:24:35.020Z,4.05
2023-01-06T01:25:36.963Z,6.50
2023-01-06T01:26:40.226Z,9.68
2023-01-06T01:27:43.131Z,6.68
2023-01-06T01:28:45.452Z,5.80
2023-01-06T01:29:48.520Z,10.07
2023-01-06T01:30:59.177Z,4.95
2023-01-06T01:32:02.327Z,8.15
2023-01-06T01:33:04.357Z,8.93
2023-01-06T01:34:07.958Z,10.23
2023-01-06T01:35:11.414Z,6.25
2023-01-06T01:36:15.070Z,4.68
2023-01-06T01:37:18.000Z,7.72
2023-01-06T01:38:19.966Z,6.43
2023-01-06T01:39:24.954Z,15.57
2023-01-06T01:40:26.924Z,8.18
2023-01-06T01:41:30.872Z,11.73
2023-01-06T01:42:33.785Z,6.28
2023-01-06T01:43:46.667Z,8.05
2023-01-06T01:44:59.771Z,6.82
2023-01-06T01:46:03.230Z,8.88
2023-01-06T01:47:06.380Z,7.50
2023-01-06T01:48:17.252Z,9.85
2023-01-06T01:49:23.769Z,9.80
2023-01-06T01:50:32.958Z,14.00
2023-01-06T01:51:39.449Z,10.43
2023-01-06T01:52:45.439Z,5.53
2023-01-06T01:53:49.821Z,6.43
2023-01-06T01:54:58.802Z,6.20
2023-01-06T01:56:03.550Z,11.93
2023-01-06T01:57:11.201Z,6.90
2023-01-06T01:58:19.225Z,12.48
2023-01-06T01:59:24.049Z,4.85
2023-01-06T02:00:27.052Z,7.38
2023-01-06T02:01:31.516Z,9.18
2023-01-06T02:02:34.703Z,9.60
2023-01-06T02:03:37.421Z,8.35
2023-01-06T02:04:43.310Z,5.82
2023-01-06T02:05:50.045Z,7.55
2023-01-06T02:06:53.469Z,3.75
2023-01-06T02:07:58.367Z,8.45
2023-01-06T02:09:07.000Z,5.25
2023-01-06T02:10:14.340Z,7.57
2023-01-06T02:11:16.397Z,4.85
2023-01-06T02:12:19.344Z,7.80
2023-01-06T02:13:21.359Z,10.23
2023-01-06T02:14:26.336Z,6.10
2023-01-06T02:15:34.208Z,10.40
2023-01-06T02:16:49.844Z,6.55
2023-01-06T02:18:31.363Z,6.63
2023-01-06T02:20:14.939Z,7.47
2023-01-06T02:21:38.194Z,11.43
2023-01-06T02:23:14.316Z,4.22
2023-01-06T02:24:53.295Z,9.63
2023-01-06T02:26:18.614Z,6.63
2023-01-06T02:27:48.608Z,4.50
2023-01-06T02:29:10.091Z,7.78
2023-01-06T02:30:41.653Z,3.67
2023-01-06T02:32:00.603Z,7.20
2023-01-06T02:33:14.246Z,11.73
2023-01-06T02:34:27.178Z,6.78
2023-01-06T02:35:55.278Z,4.88
2023-01-06T02:37:05.874Z,7.32
2023-01-06T02:38:17.346Z,7.03
2023-01-06T02:39:31.610Z,11.57
2023-01-06T02:40:48.958Z,7.72
2023-01-06T02:42:02.608Z,5.32
2023-01-06T02:43:14.476Z,7.80
2023-01-06T02:44:25.306Z,6.18
2023-01-06T02:45:35.055Z,8.05
2023-01-06T02:46:57.778Z,7.15
2023-01-06T02:48:04.519Z,9.25
2023-01-06T02:49:16.119Z,9.48
2023-01-06T02:50:24.531Z,5.18
2023-01-06T02:51:40.039Z,4.82
2023-01-06T02:52:46.864Z,6.00
2023-01-06T02:54:01.096Z,9.82
2023-01-06T02:55:08.491Z,10.77
2023-01-06T02:56:11.123Z,5.63
2023-01-06T02:57:21.896Z,4.95
2023-01-06T02:58:31.133Z,6.78
2023-01-06T02:59:39.354Z,4.82
2023-01-06T03:00:46.774Z,7.65
2023-01-06T03:01:52.340Z,5.05
2023-01-06T03:03:00.345Z,5.75
2023-01-06T03:04:06.041Z,5.05
2023-01-06T03:05:12.745Z,5.72
2023-01-06T03:06:17.908Z,4.50
2023-01-06T03:07:23.387Z,5.15
2023-01-06T03:08:28.091Z,5.65
2023-01-06T03:09:34.803Z,13.95
2023-01-06T03:10:39.107Z,5.35
2023-01-06T03:11:42.973Z,4.97
2023-01-06T03:12:52.221Z,8.20
2023-01-06T03:13:59.539Z,10.63
2023-01-06T03:15:03.057Z,8.80
2023-01-06T03:16:06.045Z,9.77
2023-01-06T03:17:09.053Z,7.43
2023-01-06T03:18:12.443Z,4.45
2023-01-06T03:19:15.696Z,3.83
2023-01-06T03:20:17.942Z,4.35
2023-01-06T03:21:23.160Z,7.70
2023-01-06T03:22:26.112Z,7.15
2023-01-06T03:23:29.123Z,7.85
2023-01-06T03:24:31.097Z,8.07
2023-01-06T03:25:34.164Z,9.93
2023-01-06T03:26:36.511Z,7.40
2023-01-06T03:27:39.573Z,12.30
2023-01-06T03:28:41.513Z,5.63
2023-01-06T03:29:44.665Z,7.47
2023-01-06T03:30:53.410Z,11.27
2023-01-06T03:32:02.448Z,5.10
2023-01-06T03:33:10.753Z,12.18
2023-01-06T03:34:21.494Z,5.60
2023-01-06T03:35:40.990Z,3.78
2023-01-06T03:36:54.429Z,8.05
2023-01-06T03:38:03.255Z,6.25
2023-01-06T03:39:12.371Z,8.02
2023-01-06T03:40:26.930Z,11.52
2023-01-06T03:41:49.772Z,11.32
2023-01-06T03:43:13.561Z,12.93
2023-01-06T03:44:26.855Z,7.60
2023-01-06T03:45:50.740Z,10.93
2023-01-06T03:47:01.215Z,14.05
2023-01-06T03:48:11.617Z,6.82
2023-01-06T03:49:22.075Z,7.80
2023-01-06T03:50:29.270Z,5.22
2023-01-06T03:51:44.509Z,10.15
2023-01-06T03:52:51.528Z,6.32
2023-01-06T03:54:02.903Z,11.25
2023-01-06T03:55:08.514Z,9.23
2023-01-06T03:56:19.832Z,11.32
2023-01-06T03:57:25.215Z,4.25
2023-01-06T03:58:30.335Z,8.90
2023-01-06T03:59:37.425Z,14.20
2023-01-06T04:00:41.919Z,9.98
2023-01-06T04:01:44.852Z,10.13
2023-01-06T04:02:48.115Z,5.13
2023-01-06T04:03:52.723Z,7.68
2023-01-06T04:05:07.656Z,13.10
2023-01-06T04:06:10.595Z,10.55
2023-01-06T04:07:12.592Z,9.77
2023-01-06T04:08:15.565Z,8.30
2023-01-06T04:09:18.563Z,6.88
2023-01-06T04:10:21.666Z,16.85
2023-01-06T04:11:41.811Z,10.40
2023-01-06T04:12:44.961Z,6.63
2023-01-06T04:13:46.905Z,11.52
2023-01-06T04:14:48.853Z,7.47
2023-01-06T04:15:51.806Z,9.63
2023-01-06T04:16:53.767Z,5.95
2023-01-06T04:17:57.059Z,7.03
2023-01-06T04:18:59.074Z,7.15
2023-01-06T04:20:02.177Z,12.65
2023-01-06T04:21:05.827Z,10.02
2023-01-06T04:22:08.814Z,8.43
2023-01-06T04:23:10.749Z,8.80
2023-01-06T04:24:13.796Z,10.65
2023-01-06T04:25:15.806Z,6.25
2023-01-06T04:26:18.739Z,11.43
2023-01-06T04:27:21.019Z,9.60
2023-01-06T04:28:24.002Z,5.45
2023-01-06T04:29:25.979Z,7.30
2023-01-06T04:30:28.897Z,7.95
2023-01-06T04:31:30.970Z,5.43
2023-01-06T04:32:33.968Z,6.13
2023-01-06T04:33:36.239Z,8.88
2023-01-06T04:34:39.228Z,6.07
2023-01-06T04:35:43.197Z,8.43
2023-01-06T04:36:47.536Z,12.38
2023-01-06T04:37:49.511Z,5.90
2023-01-06T04:38:52.496Z,7.47
2023-01-06T04:39:54.493Z,6.00
2023-01-06T04:40:57.642Z,9.93
2023-01-06T04:41:59.549Z,10.00
2023-01-06T04:43:05.363Z,3.22
2023-01-06T04:44:07.588Z,4.88
2023-01-06T04:45:11.160Z,8.65
2023-01-06T04:46:13.109Z,6.10
2023-01-06T04:47:16.107Z,6.05
2023-01-06T04:48:18.225Z,7.07
2023-01-06T04:49:21.200Z,15.40
2023-01-06T04:50:23.176Z,4.68
2023-01-06T04:51:26.179Z,12.80
2023-01-06T04:52:30.443Z,6.30
2023-01-06T04:53:34.389Z,4.47
2023-01-06T04:54:37.734Z,9.07
2023-01-06T04:55:40.189Z,9.18
2023-01-06T04:56:43.425Z,6.88
2023-01-06T04:57:45.393Z,5.45
2023-01-06T04:58:48.448Z,7.90
2023-01-06T04:59:50.363Z,8.07
2023-01-06T05:00:59.966Z,10.38
2023-01-06T05:02:02.976Z,3.45
2023-01-06T05:03:04.995Z,8.15
2023-01-06T05:04:08.192Z,5.05
2023-01-06T05:05:10.641Z,6.75
2023-01-06T05:06:15.059Z,12.48
2023-01-06T05:07:17.127Z,7.45
2023-01-06T05:08:21.412Z,5.50
2023-01-06T05:09:23.310Z,6.35
2023-01-06T05:10:26.242Z,7.80
2023-01-06T05:11:28.511Z,8.82
2023-01-06T05:12:32.818Z,6.10
2023-01-06T05:13:35.026Z,8.82
2023-01-06T05:14:38.187Z,7.15
2023-01-06T05:15:40.171Z,5.93
2023-01-06T05:16:44.353Z,7.03
2023-01-06T05:17:46.408Z,7.45
2023-01-06T05:18:49.322Z,9.40
2023-01-06T05:19:51.539Z,6.47
2023-01-06T05:20:55.781Z,6.68
2023-01-06T05:21:57.705Z,8.27
2023-01-06T05:23:00.594Z,10.25
2023-01-06T05:24:04.486Z,5.47
2023-01-06T05:25:08.489Z,11.27
2023-01-06T05:26:18.040Z,7.28
2023-01-06T05:27:21.337Z,6.90
2023-01-06T05:28:23.393Z,8.02
2023-01-06T05:29:26.317Z,5.97
2023-01-06T05:30:28.261Z,6.05
2023-01-06T05:31:31.441Z,5.43
2023-01-06T05:32:33.454Z,7.53
2023-01-06T05:33:36.539Z,4.43
2023-01-06T05:34:39.486Z,10.93
2023-01-06T05:35:41.427Z,5.55
2023-01-06T05:36:44.455Z,8.48
2023-01-06T05:37:46.381Z,6.90
2023-01-06T05:38:53.272Z,4.38
2023-01-06T05:39:56.595Z,7.88
2023-01-06T05:40:59.718Z,7.47
2023-01-06T05:42:01.666Z,4.43
2023-01-06T05:43:04.622Z,5.72
2023-01-06T05:44:07.686Z,5.68
2023-01-06T05:45:11.276Z,7.18
2023-01-06T05:46:14.299Z,9.25
2023-01-06T05:47:16.268Z,11.02
2023-01-06T05:48:19.839Z,12.95
2023-01-06T05:49:21.923Z,8.52
2023-01-06T05:50:24.837Z,9.07
2023-01-06T05:51:27.985Z,11.45
2023-01-06T05:52:29.935Z,5.55
2023-01-06T05:53:33.789Z,11.45
2023-01-06T05:54:35.708Z,9.07
2023-01-06T05:55:39.968Z,7.60
2023-01-06T05:56:41.874Z,4.55
2023-01-06T05:57:44.796Z,8.52
2023-01-06T05:58:48.959Z,9.50
2023-01-06T05:59:51.916Z,8.65
2023-01-06T06:00:53.865Z,10.98
2023-01-06T06:01:56.868Z,4.57
2023-01-06T06:02:58.883Z,7.15
2023-01-06T06:04:02.009Z,5.57
2023-01-06T06:05:04.402Z,4.15
2023-01-06T06:06:07.984Z,5.45
2023-01-06T06:07:09.897Z,10.18
2023-01-06T06:08:12.789Z,10.68
2023-01-06T06:09:14.978Z,9.20
2023-01-06T06:10:18.032Z,10.38
2023-01-06T06:11:22.346Z,12.23
2023-01-06T06:12:25.381Z,6.90
2023-01-06T06:13:27.297Z,14.00
2023-01-06T06:14:30.211Z,6.55
2023-01-06T06:15:32.196Z,10.95
2023-01-06T06:16:36.044Z,5.53
2023-01-06T06:17:38.014Z,7.60
2023-01-06T06:18:43.917Z,7.78
2023-01-06T06:19:47.181Z,7.82
2023-01-06T06:20:49.254Z,16.17
2023-01-06T06:21:53.436Z,7.05
2023-01-06T06:22:56.642Z,14.52
2023-01-06T06:23:59.722Z,11.48
2023-01-06T06:25:02.668Z,12.40
2023-01-06T06:26:04.751Z,11.02
2023-01-06T06:27:09.038Z,10.73
2023-01-06T06:28:11.049Z,10.18
2023-01-06T06:29:13.985Z,8.93
2023-01-06T06:30:17.007Z,9.52
2023-01-06T06:31:22.863Z,5.57
2023-01-06T06:32:25.861Z,9.52
2023-01-06T06:33:27.834Z,10.00
2023-01-06T06:34:30.819Z,14.07
2023-01-06T06:35:32.754Z,13.30
2023-01-06T06:36:35.654Z,11.32
2023-01-06T06:37:37.648Z,15.95
2023-01-06T06:38:40.850Z,8.65
2023-01-06T06:39:42.785Z,9.05
2023-01-06T06:40:45.779Z,9.57
2023-01-06T06:41:48.689Z,13.88
2023-01-06T06:42:52.925Z,11.65
2023-01-06T06:43:56.388Z,13.30
2023-01-06T06:44:59.385Z,8.88
2023-01-06T06:46:01.741Z,8.13
2023-01-06T06:47:04.731Z,8.25
2023-01-06T06:48:08.811Z,7.78
2023-01-06T06:49:11.828Z,8.25
2023-01-06T06:50:14.061Z,11.70
2023-01-06T06:51:19.225Z,11.85
2023-01-06T06:52:21.220Z,17.25
2023-01-06T06:53:24.190Z,12.63
2023-01-06T06:54:27.343Z,15.50
2023-01-06T06:55:29.322Z,12.73
2023-01-06T06:56:32.230Z,16.45
2023-01-06T06:57:34.184Z,11.48
2023-01-06T06:58:39.186Z,13.63
2023-01-06T06:59:42.110Z,7.70
2023-01-06T07:00:44.021Z,12.40
2023-01-06T07:01:47.160Z,12.35
2023-01-06T07:02:49.511Z,12.73
2023-01-06T07:03:52.438Z,10.52
2023-01-06T07:04:54.378Z,10.07
2023-01-06T07:05:57.647Z,12.90
2023-01-06T07:07:00.591Z,14.98
2023-01-06T07:08:02.576Z,14.27
2023-01-06T07:09:05.741Z,13.50
2023-01-06T07:10:08.587Z,7.90
2023-01-06T07:11:11.727Z,14.48
2023-01-06T07:12:13.685Z,10.68
2023-01-06T07:13:16.597Z,9.35
2023-01-06T07:14:20.001Z,12.60
2023-01-06T07:15:22.941Z,16.52
2023-01-06T07:16:26.767Z,11.77
2023-01-06T07:17:29.058Z,12.00
2023-01-06T07:18:31.992Z,10.50
2023-01-06T07:19:34.562Z,11.05
2023-01-06T07:20:38.623Z,10.95
2023-01-06T07:21:41.545Z,10.90
2023-01-06T07:22:43.450Z,12.30
2023-01-06T07:23:46.411Z,12.32
2023-01-06T07:24:48.320Z,15.30
2023-01-06T07:25:53.201Z,14.75
2023-01-06T07:26:55.125Z,14.38
2023-01-06T07:27:59.552Z,16.85
2023-01-06T07:29:01.560Z,15.25
2023-01-06T07:30:07.437Z,19.10
2023-01-06T07:31:10.438Z,14.68
2023-01-06T07:32:12.450Z,15.13
2023-01-06T07:33:15.516Z,15.98
2023-01-06T07:34:17.455Z,20.40
2023-01-06T07:35:20.943Z,13.30
2023-01-06T07:36:22.920Z,19.40
2023-01-06T07:37:25.864Z,12.20
2023-01-06T07:38:28.904Z,29.00
2023-01-06T07:39:30.829Z,24.85
2023-01-06T07:40:33.881Z,23.02
2023-01-06T07:41:36.793Z,21.35
2023-01-06T07:42:39.011Z,31.55
2023-01-06T07:43:42.013Z,15.20
2023-01-06T07:44:43.928Z,13.93
2023-01-06T07:45:49.548Z,14.95
2023-01-06T07:46:51.562Z,13.85
2023-01-06T07:47:57.144Z,14.35
2023-01-06T07:49:00.150Z,15.68
2023-01-06T07:50:02.388Z,17.50
2023-01-06T07:51:05.460Z,14.60
2023-01-06T07:52:08.533Z,18.77
2023-01-06T07:53:11.918Z,31.70
2023-01-06T07:54:13.860Z,24.83
2023-01-06T07:55:16.932Z,20.83
2023-01-06T07:56:19.048Z,54.47
2023-01-06T07:57:22.020Z,108.22
2023-01-06T07:58:25.066Z,40.88
2023-01-06T07:59:27.198Z,17.88
2023-01-06T08:00:30.102Z,12.68
2023-01-06T08:01:34.516Z,14.70
2023-01-06T08:02:37.839Z,14.90
2023-01-06T08:03:40.829Z,16.80
2023-01-06T08:04:43.787Z,15.43
2023-01-06T08:05:45.800Z,14.63
2023-01-06T08:06:48.770Z,14.73
2023-01-06T08:07:50.775Z,18.30
2023-01-06T08:08:53.743Z,11.70
2023-01-06T08:09:56.749Z,11.80
2023-01-06T08:10:58.963Z,13.15
2023-01-06T08:12:01.873Z,20.25
2023-01-06T08:13:03.822Z,10.60
2023-01-06T08:14:06.864Z,11.13
2023-01-06T08:15:09.353Z,14.65
2023-01-06T08:16:12.744Z,14.45
2023-01-06T08:17:16.158Z,13.48
2023-01-06T08:18:19.111Z,12.77
2023-01-06T08:19:21.026Z,15.48
2023-01-06T08:20:24.530Z,12.80
2023-01-06T08:21:26.721Z,14.52
2023-01-06T08:22:29.726Z,16.20
2023-01-06T08:23:31.763Z,17.00
2023-01-06T08:24:35.643Z,15.35
2023-01-06T08:25:38.593Z,14.45
2023-01-06T08:26:40.541Z,19.15
2023-01-06T08:27:43.466Z,11.52
2023-01-06T08:28:46.091Z,13.07
2023-01-06T08:29:50.198Z,10.60
2023-01-06T08:30:53.367Z,12.38
2023-01-06T08:32:09.917Z,14.93
2023-01-06T08:33:14.894Z,15.30
2023-01-06T08:34:17.793Z,12.63
2023-01-06T08:35:20.694Z,15.85
2023-01-06T08:36:24.276Z,11.43
2023-01-06T08:37:28.557Z,13.68
2023-01-06T08:38:31.684Z,9.25
2023-01-06T08:39:34.709Z,11.43
2023-01-06T08:40:37.689Z,13.23
2023-01-06T08:41:40.902Z,14.90
2023-01-06T08:42:42.917Z,10.00
2023-01-06T08:43:47.443Z,10.55
2023-01-06T08:44:49.405Z,13.90
2023-01-06T08:45:52.390Z,12.25
2023-01-06T08:46:54.426Z,11.38
2023-01-06T08:47:57.315Z,9.77
2023-01-06T08:49:01.864Z,10.80
2023-01-06T08:50:05.206Z,7.78
2023-01-06T08:51:11.394Z,12.85
2023-01-06T08:52:14.351Z,14.07
2023-01-06T08:53:17.303Z,15.20
2023-01-06T08:54:19.255Z,10.15
2023-01-06T08:55:22.154Z,9.85
2023-01-06T08:56:25.716Z,11.63
2023-01-06T08:57:28.701Z,12.13
2023-01-06T08:58:31.693Z,9.63
2023-01-06T08:59:33.700Z,11.27
2023-01-06T09:00:36.977Z,10.45
2023-01-06T09:01:39.047Z,12.00
2023-01-06T09:02:42.078Z,9.30
2023-01-06T09:05:12.668Z,11.90
2023-01-06T09:06:15.264Z,10.90
2023-01-06T09:07:18.206Z,9.02
2023-01-06T09:08:20.185Z,14.65
2023-01-06T09:09:23.143Z,16.50
2023-01-06T09:10:26.544Z,11.15
2023-01-06T09:11:29.515Z,10.23
2023-01-06T09:12:31.556Z,13.18
2023-01-06T09:13:35.816Z,12.52
2023-01-06T09:14:39.543Z,11.93
2023-01-06T09:15:42.051Z,11.40
2023-01-06T09:16:45.035Z,14.75
2023-01-06T09:17:46.953Z,10.75
2023-01-06T09:18:50.590Z,13.25
2023-01-06T09:19:52.576Z,11.27
2023-01-06T09:20:56.809Z,12.20
2023-01-06T09:22:00.337Z,13.82
2023-01-06T09:23:04.334Z,12.93
2023-01-06T09:24:07.838Z,13.05
2023-01-06T09:25:10.931Z,12.18
2023-01-06T09:26:13.556Z,13.15
2023-01-06T09:27:16.739Z,12.10
2023-01-06T09:28:18.721Z,11.85
2023-01-06T09:29:21.667Z,15.70
2023-01-06T09:30:25.203Z,15.77
2023-01-06T09:31:28.301Z,17.85
2023-01-06T09:32:32.534Z,12.90
2023-01-06T09:33:35.696Z,13.05
2023-01-06T09:34:38.601Z,9.95
2023-01-06T09:35:40.523Z,11.27
2023-01-06T09:36:44.960Z,9.90
2023-01-06T09:37:46.942Z,11.60
2023-01-06T09:38:49.961Z,12.25
2023-01-06T09:39:51.887Z,13.15
2023-01-06T09:41:08.333Z,13.20
2023-01-06T09:42:25.335Z,14.35
2023-01-06T09:43:42.214Z,13.00
2023-01-06T09:44:49.063Z,10.80
2023-01-06T09:45:56.250Z,12.07
2023-01-06T09:47:01.334Z,12.45
2023-01-06T09:48:07.478Z,9.40
2023-01-06T09:49:21.256Z,10.00
2023-01-06T09:50:31.605Z,11.18
2023-01-06T09:51:36.420Z,10.45
2023-01-06T09:52:45.620Z,9.07
2023-01-06T09:53:53.526Z,11.40
2023-01-06T09:55:00.858Z,10.63
2023-01-06T09:56:08.480Z,9.13
2023-01-06T09:57:17.811Z,7.38
2023-01-06T09:58:26.729Z,7.43
2023-01-06T09:59:33.877Z,9.18
2023-01-06T10:00:40.706Z,8.98
2023-01-06T10:01:49.852Z,9.32
2023-01-06T10:02:53.426Z,9.48
2023-01-06T10:03:56.918Z,8.35
2023-01-06T10:05:00.019Z,10.75
2023-01-06T10:06:11.780Z,9.65
2023-01-06T10:07:20.395Z,9.52
2023-01-06T10:08:33.496Z,10.75
2023-01-06T10:09:45.411Z,8.07
2023-01-06T10:10:56.790Z,10.02
2023-01-06T10:12:09.365Z,11.38
2023-01-06T10:13:30.337Z,10.13
2023-01-06T10:14:45.810Z,8.45
2023-01-06T10:15:52.423Z,9.52
2023-01-06T10:17:11.965Z,11.52
2023-01-06T10:18:38.417Z,8.60
2023-01-06T10:19:58.881Z,11.18
2023-01-06T10:21:11.228Z,10.13
2023-01-06T10:22:22.123Z,9.43
2023-01-06T10:23:49.654Z,11.20
2023-01-06T10:25:00.472Z,9.27
2023-01-06T10:26:11.381Z,8.43
2023-01-06T10:27:28.354Z,7.50
2023-01-06T10:28:35.852Z,9.10
2023-01-06T10:29:39.331Z,9.30
2023-01-06T10:30:46.994Z,8.05
2023-01-06T10:31:52.507Z,7.53
2023-01-06T10:32:55.457Z,7.00
2023-01-06T10:33:58.869Z,8.70
2023-01-06T10:35:02.859Z,7.68
2023-01-06T10:36:13.540Z,9.32
2023-01-06T10:37:23.264Z,6.93
2023-01-06T10:38:32.831Z,8.15
2023-01-06T10:39:38.983Z,7.85
2023-01-06T10:40:40.951Z,9.27
2023-01-06T10:41:51.178Z,8.40
2023-01-06T10:42:55.880Z,7.18
2023-01-06T10:43:58.955Z,7.25
2023-01-06T10:45:00.919Z,8.68
2023-01-06T10:46:03.992Z,7.40
2023-01-06T10:47:06.946Z,7.85
2023-01-06T10:48:14.713Z,6.90
2023-01-06T10:49:18.536Z,6.38
2023-01-06T10:50:21.771Z,8.00
2023-01-06T10:51:36.315Z,7.78
2023-01-06T10:52:40.142Z,7.35
2023-01-06T10:53:43.158Z,7.47
2023-01-06T10:54:46.882Z,7.28
2023-01-06T10:55:53.953Z,6.82
2023-01-06T10:57:02.408Z,5.97
2023-01-06T10:58:15.531Z,9.35
2023-01-06T10:59:18.437Z,6.20
2023-01-06T11:00:27.843Z,9.73
2023-01-06T11:01:32.644Z,6.57
2023-01-06T11:02:35.952Z,7.15
2023-01-06T11:03:42.833Z,7.70
2023-01-06T11:04:52.300Z,8.55
2023-01-06T11:06:05.692Z,8.27
2023-01-06T11:07:15.593Z,6.43
2023-01-06T11:08:19.798Z,6.72
2023-01-06T11:09:29.764Z,10.85
2023-01-06T11:10:38.705Z,8.35
2023-01-06T11:11:50.962Z,5.90
2023-01-06T11:12:54.212Z,6.03
2023-01-06T11:14:00.107Z,10.65
2023-01-06T11:15:06.246Z,6.43
2023-01-06T11:16:20.006Z,6.13
2023-01-06T11:17:24.276Z,5.78
2023-01-06T11:18:29.271Z,5.40
2023-01-06T11:19:37.655Z,7.45
2023-01-06T11:20:42.636Z,5.18
2023-01-06T11:21:47.531Z,6.90
2023-01-06T11:22:50.481Z,5.40
2023-01-06T11:24:15.594Z,6.05
2023-01-06T11:25:29.549Z,5.10
2023-01-06T11:26:46.265Z,4.57
2023-01-06T11:27:50.261Z,6.05
2023-01-06T11:28:55.760Z,6.88
2023-01-06T11:29:58.786Z,4.10
2023-01-06T11:31:03.651Z,4.35
2023-01-06T11:32:16.379Z,8.23
2023-01-06T11:33:21.571Z,4.22
2023-01-06T11:34:28.976Z,3.85
2023-01-06T11:35:33.602Z,4.93
2023-01-06T11:36:46.569Z,4.22
2023-01-06T11:37:49.753Z,5.10
2023-01-06T11:38:57.354Z,3.55
2023-01-06T11:40:10.382Z,4.00
2023-01-06T11:41:22.120Z,3.53
2023-01-06T11:42:26.973Z,3.67
2023-01-06T11:43:33.852Z,3.83
2023-01-06T11:44:38.469Z,8.07
2023-01-06T11:45:45.086Z,3.17
2023-01-06T11:46:51.630Z,3.25
2023-01-06T11:47:54.621Z,3.67
2023-01-06T11:49:02.722Z,3.85
2023-01-06T11:50:07.019Z,3.95
2023-01-06T11:51:09.671Z,4.03
2023-01-06T11:52:23.245Z,5.63
2023-01-06T11:53:25.975Z,4.63
2023-01-06T11:54:36.111Z,5.10
2023-01-06T11:55:39.073Z,4.43
2023-01-06T11:56:42.041Z,4.78
2023-01-06T11:57:51.857Z,5.82
2023-01-06T11:59:02.430Z,6.45
2023-01-06T12:00:31.613Z,6.72
2023-01-06T12:01:40.744Z,7.25
2023-01-06T12:02:50.811Z,7.20
2023-01-06T12:04:02.062Z,8.77
2023-01-06T12:05:11.737Z,7.80
2023-01-06T12:06:27.112Z,12.23
2023-01-06T12:07:34.200Z,9.55
2023-01-06T12:08:43.082Z,9.73
2023-01-06T12:09:48.986Z,10.75
2023-01-06T12:10:56.880Z,11.60
2023-01-06T12:12:04.653Z,12.25
2023-01-06T12:13:11.010Z,11.35
2023-01-06T12:14:28.093Z,10.32
2023-01-06T12:15:35.453Z,12.73
2023-01-06T12:16:40.580Z,10.20
2023-01-06T12:17:50.612Z,14.82
2023-01-06T12:18:53.631Z,12.45
2023-01-06T12:20:02.467Z,11.60
2023-01-06T12:21:06.851Z,12.32
2023-01-06T12:22:22.858Z,9.50
2023-01-06T12:23:30.122Z,9.50
2023-01-06T12:24:33.470Z,11.63
2023-01-06T12:25:40.441Z,11.23
2023-01-06T12:26:44.044Z,9.50
2023-01-06T12:27:51.851Z,9.35
2023-01-06T12:28:58.281Z,9.13
2023-01-06T12:30:04.839Z,11.50
2023-01-06T12:31:11.679Z,8.73
2023-01-06T12:32:19.680Z,12.70
2023-01-06T12:33:29.220Z,9.65
2023-01-06T12:34:36.730Z,10.55
2023-01-06T12:35:42.718Z,9.13
2023-01-06T12:36:49.624Z,8.07
2023-01-06T12:37:56.217Z,10.85
2023-01-06T12:39:03.435Z,8.02
2023-01-06T12:40:14.189Z,7.15
2023-01-06T12:41:26.011Z,8.20
2023-01-06T12:42:36.713Z,9.10
2023-01-06T12:43:44.552Z,8.27
2023-01-06T12:44:51.170Z,9.52
2023-01-06T12:46:00.239Z,7.53
2023-01-06T12:47:15.222Z,9.63
2023-01-06T12:48:27.803Z,9.00
2023-01-06T12:49:38.763Z,9.40
2023-01-06T12:50:46.465Z,5.45
2023-01-06T12:51:52.005Z,9.00
2023-01-06T12:53:04.796Z,8.30
2023-01-06T12:54:15.066Z,9.82
2023-01-06T12:55:25.279Z,9.98
2023-01-06T12:56:40.088Z,8.13
2023-01-06T12:57:53.690Z,8.52
2023-01-06T12:59:07.123Z,8.98
2023-01-06T13:00:38.206Z,10.15
2023-01-06T13:01:47.397Z,8.25
2023-01-06T13:03:42.178Z,7.20
2023-01-06T13:05:17.088Z,9.95
2023-01-06T13:06:52.976Z,10.02
2023-01-06T13:08:08.267Z,8.85
2023-01-06T13:09:26.508Z,4.60
2023-01-06T13:10:35.140Z,2.60
2023-01-06T13:11:55.593Z,2.80
2023-01-06T13:13:24.455Z,1.83
2023-01-06T13:14:33.710Z,2.47
2023-01-06T13:15:41.630Z,1.20
2023-01-06T13:16:51.821Z,1.85
2023-01-06T13:18:06.502Z,2.95
2023-01-06T13:19:21.949Z,2.08
2023-01-06T13:20:29.248Z,1.40
2023-01-06T13:21:33.909Z,1.67
2023-01-06T13:22:47.803Z,1.23
2023-01-06T13:24:07.128Z,1.85
2023-01-06T13:25:29.533Z,2.22
2023-01-06T13:26:58.830Z,1.38
2023-01-06T13:28:09.469Z,1.20
2023-01-06T13:29:23.990Z,1.80
2023-01-06T13:30:52.872Z,2.65
2023-01-06T13:32:26.647Z,0.90
2023-01-06T13:33:55.705Z,2.20
2023-01-06T13:35:21.844Z,1.73
2023-01-06T13:36:45.106Z,1.58
2023-01-06T13:38:01.546Z,0.90
2023-01-06T13:39:10.275Z,1.67
2023-01-06T13:40:16.452Z,0.90
2023-01-06T13:41:21.838Z,0.90
2023-01-06T13:42:34.760Z,0.95
2023-01-06T13:43:36.977Z,0.75
2023-01-06T13:44:40.145Z,0.80
2023-01-06T13:45:46.805Z,1.27
2023-01-06T13:46:54.097Z,1.10
2023-01-06T13:47:58.200Z,0.85
2023-01-06T13:49:04.218Z,1.70
2023-01-06T13:50:07.907Z,2.55
2023-01-06T13:51:14.072Z,1.25
2023-01-06T13:52:22.833Z,0.85
2023-01-06T13:53:27.110Z,1.05
2023-01-06T13:54:59.731Z,1.15
2023-01-06T13:56:25.752Z,0.80
2023-01-06T13:57:33.076Z,1.10
2023-01-06T13:58:38.262Z,1.65
2023-01-06T13:59:49.757Z,0.98
2023-01-06T14:01:07.189Z,1.10
2023-01-06T14:02:50.795Z,0.90
2023-01-06T14:03:53.831Z,1.10
2023-01-06T14:04:55.814Z,1.10
2023-01-06T14:06:01.082Z,1.13
2023-01-06T14:07:04.646Z,1.88
2023-01-06T14:08:17.891Z,1.40
2023-01-06T14:09:22.469Z,0.68
2023-01-06T14:10:33.707Z,1.42
2023-01-06T14:11:38.319Z,0.82
2023-01-06T14:12:41.610Z,0.98
2023-01-06T14:13:51.741Z,0.80
2023-01-06T14:14:59.885Z,0.95
2023-01-06T14:16:06.564Z,2.17
2023-01-06T14:17:30.027Z,0.77
2023-01-06T14:18:52.951Z,0.98
2023-01-06T14:19:56.168Z,1.05
2023-01-06T14:21:04.455Z,1.00
2023-01-06T14:22:18.101Z,0.70
2023-01-06T14:23:24.073Z,0.77
2023-01-06T14:24:31.367Z,0.82
2023-01-06T14:25:38.597Z,3.17
2023-01-06T14:26:54.663Z,0.93
2023-01-06T14:28:10.232Z,1.13
2023-01-06T14:30:05.929Z,0.82
2023-01-06T14:31:39.869Z,0.90
2023-01-06T14:33:22.419Z,0.80
2023-01-06T14:34:26.435Z,2.10
2023-01-06T14:35:31.680Z,0.88
2023-01-06T14:36:35.670Z,0.93
2023-01-06T14:37:42.814Z,1.42